• Join FlightAware (Why Join?)
  • Login
  • US Flag 
10:03PM EDT


 

Airport Tracker/Info


-or-


 

Live Flight TrackerFlight Track Log ✈ VOZ735 ✈ 13-May-2012 ✈ YMML / MEL - YBCG / OOL

Flight Track Log - Related Links

Times and Time Zones

All times are in EDT time to prevent confusion due to time zone crossing. See the VOZ735 flight status page for this flight to view local times or setup timezone preferences in your user account.

Time Position Orientation Groundspeed Altitude Reporting Facility
EDT Latitude Longitude Course Direction KTS MPH feet Rate Location/Type
08:24PM -37.6596 144.8052 275° West 146 168 1,700  Level Aus ATC (RADAR)
08:25PM -37.6573 144.7708 275° West 172 198 2,500 1,500 Climbing Aus ATC (RADAR)
08:25PM -37.6538 144.7192 315° West 226 260 3,600 2,760 Climbing Aus ATC (RADAR)
08:26PM -37.6232 144.6812 342° North 276 318 6,000 3,900 Climbing Aus ATC (RADAR)
08:27PM -37.5773 144.6624 354° North 292 336 8,200 3,180 Climbing Aus ATC (RADAR)
08:27PM -37.5354 144.6572 39° Northeast 312 359 9,500 2,160 Climbing Aus ATC (RADAR)
08:28PM -37.4935 144.6992 46° Northeast 341 392 10,600 1,980 Climbing Aus ATC (RADAR)
08:29PM -37.4206 144.7948 46° Northeast 395 455 12,700 2,580 Climbing Aus ATC (RADAR)
08:30PM -37.3497 144.8885 46° Northeast 410 472 15,600 3,060 Climbing Aus ATC (RADAR)
08:30PM -37.2899 144.9674 46° Northeast 420 483 17,800 2,880 Climbing Aus ATC (RADAR)
08:31PM -37.2421 145.0302 46° Northeast 431 496 19,400 2,580 Climbing Aus ATC (RADAR)
08:32PM -37.1785 145.1134 46° Northeast 447 514 21,300 2,520 Climbing Aus ATC (RADAR)
08:33PM -37.0983 145.2173 41° Northeast 458 527 23,600 2,280 Climbing Aus ATC (RADAR)
08:34PM -37.0002 145.3240 40° Northeast 474 545 25,700 2,040 Climbing Aus ATC (RADAR)
08:35PM -36.8967 145.4313 40° Northeast 488 562 27,700 1,920 Climbing Aus ATC (RADAR)
08:35PM -36.8263 145.5038 39° Northeast 497 572 28,900 1,800 Climbing Aus ATC (RADAR)
08:36PM -36.7637 145.5675 40° Northeast 501 577 30,000 1,620 Climbing Aus ATC (RADAR)
08:36PM -36.7004 145.6330 39° Northeast 508 585 30,800 1,440 Climbing Aus ATC (RADAR)
08:37PM -36.6452 145.6885 40° Northeast 513 590 31,600 1,440 Climbing Aus ATC (RADAR)
08:38PM -36.5811 145.7545 39° Northeast 516 594 32,400 1,560 Climbing Aus ATC (RADAR)
08:38PM -36.4785 145.8587 40° Northeast 521 600 34,000 1,860 Climbing Aus ATC (RADAR)
08:39PM -36.3962 145.9429 39° Northeast 511 588 35,500 1,980 Climbing Aus ATC (RADAR)
08:40PM -36.3331 146.0064 40° Northeast 500 575 36,700 1,680 Climbing Aus ATC (RADAR)
08:41PM -36.2538 146.0878 39° Northeast 493 567 37,800 1,200 Climbing Aus ATC (RADAR)
08:41PM -36.1917 146.1492 39° Northeast 489 563 38,400 960 Climbing Aus ATC (RADAR)
08:42PM -36.1120 146.2295 39° Northeast 493 567 39,100 360 Climbing Aus ATC (RADAR)
08:43PM -36.0061 146.3354 39° Northeast 491 565 39,100  Level Aus ATC (RADAR)
08:44PM -35.8914 146.4503 39° Northeast 491 565 39,100  Level Aus ATC (RADAR)
08:45PM -35.7849 146.5564 39° Northeast 492 566 39,100  Level Aus ATC (RADAR)
08:46PM -35.7047 146.6358 38° Northeast 494 568 39,100  Level Aus ATC (RADAR)
08:46PM -35.6420 146.6968 39° Northeast 495 570 39,100  Level Aus ATC (RADAR)
08:47PM -35.5616 146.7760 39° Northeast 494 568 39,100  Level Aus ATC (RADAR)
08:48PM -35.4451 146.8903 39° Northeast 494 568 39,100  Level Aus ATC (RADAR)
08:49PM -35.3284 147.0047 39° Northeast 496 571 39,100  Level Aus ATC (RADAR)
08:50PM -35.2201 147.1102 39° Northeast 499 574 39,100  Level Aus ATC (RADAR)
08:51PM -35.1383 147.1904 38° Northeast 500 575 39,100  Level Aus ATC (RADAR)
08:52PM -35.0744 147.2517 38° Northeast 499 574 39,100  Level Aus ATC (RADAR)
08:52PM -34.9836 147.3394 38° Northeast 501 577 39,100  Level Aus ATC (RADAR)
08:53PM -34.8846 147.4350 38° Northeast 497 572 39,100  Level Aus ATC (RADAR)
08:54PM -34.7765 147.5390 38° Northeast 494 568 39,100  Level Aus ATC (RADAR)
08:55PM -34.7224 147.5910 38° Northeast 494 568 39,100  Level Aus ATC (RADAR)
08:56PM -34.5859 147.7208 38° Northeast 496 571 39,100  Level Aus ATC (RADAR)
08:57PM -34.5218 147.7817 38° Northeast 499 574 39,100  Level Aus ATC (RADAR)
08:57PM -34.4581 147.8425 38° Northeast 499 574 39,100  Level Aus ATC (RADAR)
08:58PM -34.3944 147.9033 38° Northeast 497 572 39,100  Level Aus ATC (RADAR)
08:58PM -34.3307 147.9637 38° Northeast 497 572 39,100  Level Aus ATC (RADAR)
08:59PM -34.2308 148.0579 38° Northeast 494 568 39,100  Level Aus ATC (RADAR)
09:00PM -34.1238 148.1585 38° Northeast 486 559 39,100 360 Level Aus ATC (RADAR)
09:01PM -34.0448 148.2326 37° Northeast 482 555 39,800 840 Climbing Aus ATC (RADAR)
09:02PM -33.9818 148.2905 39° Northeast 486 559 40,200 540 Climbing Aus ATC (RADAR)
09:02PM -33.9203 148.3497 38° Northeast 484 557 40,500 300 Climbing Aus ATC (RADAR)
09:03PM -33.8571 148.4082 38° Northeast 490 564 40,600 300 Climbing Aus ATC (RADAR)
09:03PM -33.7937 148.4672 38° Northeast 491 565 40,900 180 Climbing Aus ATC (RADAR)
09:05PM -33.6191 148.6286 38° Northeast 505 581 41,000  Climbing Aus ATC (RADAR)
09:06PM -33.5273 148.7132 38° Northeast 501 577 41,000  Level Aus ATC (RADAR)
09:06PM -33.4720 148.7651 38° Northeast 501 577 41,000  Level Aus ATC (RADAR)
09:07PM -33.4073 148.8250 37° Northeast 501 577 41,000  Level Aus ATC (RADAR)
09:07PM -33.3424 148.8844 38° Northeast 501 577 41,000  Level Aus ATC (RADAR)
09:08PM -33.2685 148.9524 37° Northeast 499 574 41,000  Level Aus ATC (RADAR)
09:09PM -33.2036 149.0116 37° Northeast 499 574 41,000  Level Aus ATC (RADAR)
09:10PM -33.0847 149.1196 37° Northeast 491 565 41,000  Level Aus ATC (RADAR)
09:11PM -32.9664 149.2273 37° Northeast 491 565 41,000  Level Aus ATC (RADAR)
09:12PM -32.8300 149.3515 37° Northeast 494 568 41,000 60 Level Aus ATC (RADAR)
09:13PM -32.7385 149.4347 37° Northeast 492 566 41,200 120 Climbing Aus ATC (RADAR)
09:14PM -32.6558 149.5085 36° Northeast 490 564 41,200  Level Aus ATC (RADAR)
09:17PM -32.3420 149.7768 35° Northeast 485 558 41,200  Level Aus ATC (RADAR)
09:18PM -32.1405 149.9463 35° Northeast 482 555 41,200 -60 Level Aus ATC (RADAR)
09:22PM -31.7435 150.2755 35° Northeast 487 560 41,100 -60 Descending Aus ATC (RADAR)
09:23PM -31.5948 150.3980 35° Northeast 484 557 41,100  Level Aus ATC (RADAR)
09:24PM -31.5118 150.4667 35° Northeast 491 565 41,100  Level Aus ATC (RADAR)
09:26PM -31.3270 150.6175 35° Northeast 487 560 41,100  Level Aus ATC (RADAR)
09:27PM -31.1788 150.7384 34° Northeast 479 551 41,200  Climbing Aus ATC (RADAR)
09:28PM -31.1146 150.7896 43° Northeast 475 547 41,200  Level Aus ATC (RADAR)
09:29PM -30.9638 150.9538 46° Northeast 492 566 41,200 -60 Level Aus ATC (RADAR)
09:32PM -30.6913 151.2862 46° Northeast 507 583 41,100  Descending Aus ATC (RADAR)
09:32PM -30.6418 151.3457 46° Northeast 493 567 41,200  Climbing Aus ATC (RADAR)
09:34PM -30.5131 151.5020 44° Northeast 508 585 41,200  Level Aus ATC (RADAR)
09:36PM -30.3094 151.7270 43° Northeast 495 570 41,200 -60 Level Aus ATC (RADAR)
09:38PM -30.0345 152.0227 43° Northeast 491 565 41,000 -60 Descending Aus ATC (RADAR)
09:40PM -29.8810 152.1864 43° Northeast 491 565 41,000  Level Aus ATC (RADAR)
09:40PM -29.8295 152.2415 43° Northeast 493 567 41,000 -1,260 Level Aus ATC (RADAR)
09:42PM -29.6508 152.4302 43° Northeast 479 551 38,200 -2,160 Descending Aus ATC (RADAR)
09:44PM -29.4974 152.5937 42° Northeast 506 582 34,200 -2,940 Descending Aus ATC (RADAR)
09:45PM -29.3578 152.7393 43° Northeast 486 559 30,000 -3,180 Descending Aus ATC (RADAR)
09:47PM -29.1113 152.9980 42° Northeast 462 532 22,300 -3,000 Descending Aus ATC (RADAR)
09:49PM -28.9164 153.2000 42° Northeast 421 484 16,600 -2,700 Descending Aus ATC (RADAR)
09:51PM -28.7795 153.3423 42° Northeast 390 449 12,500 -2,340 Descending Aus ATC (RADAR)
09:53PM -28.6109 153.5171 29° Northeast 344 396 8,000 -1,740 Descending Aus ATC (RADAR)
09:56PM -28.4044 153.6498 335° Northwest 281 323 4,400 -1,140 Descending Aus ATC (RADAR)
09:57PM -28.3130 153.6004 331° Northwest 216 249 3,200 -900 Descending Aus ATC (RADAR)
09:59PM -28.2288 153.5464 331° Northwest 155 178 1,300 -1,020 Descending Aus ATC (RADAR)